createdAt,value
2022-12-09T00:00:04.364Z,22.07
2022-12-09T00:02:31.107Z,22.08
2022-12-09T04:07:51.763Z,21.50
2022-12-09T04:10:18.194Z,21.37
2022-12-09T04:12:44.609Z,21.38
2022-12-09T04:15:11.041Z,21.50
2022-12-09T04:17:37.831Z,21.48
2022-12-09T04:20:04.691Z,21.39
2022-12-09T04:22:31.402Z,21.38
2022-12-09T04:24:57.993Z,21.37
2022-12-09T04:27:24.555Z,21.36
2022-12-09T04:29:51.312Z,21.38
2022-12-09T04:32:17.771Z,21.39
2022-12-09T04:34:44.270Z,21.36
2022-12-09T04:37:10.643Z,21.43
2022-12-09T04:39:37.390Z,21.38
2022-12-09T04:42:04.008Z,21.38
2022-12-09T04:44:30.446Z,21.37
2022-12-09T04:46:57.053Z,21.33
2022-12-09T04:49:23.820Z,21.34
2022-12-09T04:51:50.337Z,21.37
2022-12-09T04:54:16.783Z,21.35
2022-12-09T04:56:43.201Z,21.32
2022-12-09T04:59:09.626Z,21.35
2022-12-09T05:01:36.389Z,21.36
2022-12-09T05:04:03.162Z,21.33
2022-12-09T05:06:30.344Z,21.37
2022-12-09T05:08:57.281Z,21.30
2022-12-09T05:11:23.944Z,21.36
2022-12-09T05:13:50.877Z,21.33
2022-12-09T05:16:17.700Z,21.38
2022-12-09T05:18:44.817Z,21.39
2022-12-09T05:21:11.448Z,21.44
2022-12-09T05:23:38.018Z,21.35
2022-12-09T05:26:04.635Z,21.42
2022-12-09T05:28:31.336Z,21.32
2022-12-09T05:30:57.804Z,21.34
2022-12-09T05:33:24.513Z,21.40
2022-12-09T05:35:53.475Z,21.36
2022-12-09T05:38:20.219Z,21.36
2022-12-09T05:40:46.733Z,21.36
2022-12-09T05:43:13.256Z,21.42
2022-12-09T05:45:39.770Z,21.36
2022-12-09T05:48:06.766Z,21.41
2022-12-09T05:50:33.569Z,21.42
2022-12-09T05:53:00.347Z,21.36
2022-12-09T05:55:26.853Z,21.42
2022-12-09T05:57:53.834Z,21.40
2022-12-09T06:00:20.439Z,21.46
2022-12-09T06:02:46.992Z,21.48
2022-12-09T06:05:13.896Z,21.42
2022-12-09T06:07:40.888Z,21.38
2022-12-09T06:10:08.356Z,21.45
2022-12-09T06:12:35.068Z,21.44
2022-12-09T06:15:01.586Z,21.46
2022-12-09T06:17:28.483Z,21.42
2022-12-09T06:19:54.976Z,21.40
2022-12-09T06:22:21.376Z,21.46
2022-12-09T06:24:51.167Z,21.46
2022-12-09T06:27:22.303Z,21.42
2022-12-09T06:29:48.968Z,21.52
2022-12-09T06:32:15.799Z,21.44
2022-12-09T06:34:42.472Z,21.45
2022-12-09T06:37:09.261Z,21.47
2022-12-09T06:39:35.929Z,21.49
2022-12-09T06:42:02.476Z,21.50
2022-12-09T06:44:29.084Z,21.44
2022-12-09T06:46:55.603Z,21.47
2022-12-09T06:49:22.672Z,21.53
2022-12-09T06:51:49.911Z,21.53
2022-12-09T06:54:16.661Z,21.50
2022-12-09T06:56:43.211Z,21.53
2022-12-09T06:59:10.002Z,21.52
2022-12-09T07:01:36.725Z,21.50
2022-12-09T07:04:03.492Z,21.38
2022-12-09T07:06:30.996Z,21.34
2022-12-09T07:08:58.184Z,21.38
2022-12-09T07:11:25.026Z,21.48
2022-12-09T07:13:52.251Z,21.51
2022-12-09T07:16:18.840Z,21.57
2022-12-09T07:18:46.154Z,21.56
2022-12-09T07:21:13.225Z,21.54
2022-12-09T07:23:39.642Z,21.51
2022-12-09T07:26:06.093Z,21.49
2022-12-09T07:28:32.786Z,21.56
2022-12-09T07:30:59.481Z,21.62
2022-12-09T07:33:26.379Z,21.58
2022-12-09T07:35:52.791Z,21.64
2022-12-09T07:38:20.013Z,21.63
2022-12-09T07:40:46.795Z,21.54
2022-12-09T07:43:13.319Z,21.59
2022-12-09T07:45:40.191Z,21.53
2022-12-09T07:48:07.118Z,21.56
2022-12-09T07:50:33.870Z,21.51
2022-12-09T07:53:00.286Z,21.52
2022-12-09T07:55:26.874Z,21.56
2022-12-09T07:57:53.382Z,21.53
2022-12-09T08:00:20.170Z,21.60
2022-12-09T08:02:47.145Z,21.61
2022-12-09T08:05:14.015Z,21.66
2022-12-09T08:07:44.577Z,21.55
2022-12-09T08:10:11.657Z,21.59
2022-12-09T08:12:38.256Z,21.36
2022-12-09T08:15:05.106Z,21.31
2022-12-09T08:17:32.579Z,21.52
2022-12-09T08:19:59.491Z,21.50
2022-12-09T08:22:26.096Z,21.47
2022-12-09T08:24:53.016Z,21.46
2022-12-09T08:27:19.948Z,21.55
2022-12-09T08:29:46.809Z,21.53
2022-12-09T08:32:13.486Z,21.51
2022-12-09T08:34:40.381Z,21.54
2022-12-09T08:37:06.918Z,21.57
2022-12-09T08:39:33.729Z,21.66
2022-12-09T08:42:00.221Z,21.50
2022-12-09T08:44:27.225Z,21.53
2022-12-09T08:46:53.833Z,21.61
2022-12-09T08:49:20.695Z,21.56
2022-12-09T08:51:47.571Z,21.59
2022-12-09T08:54:14.065Z,21.62
2022-12-09T08:56:40.852Z,21.55
2022-12-09T08:59:07.597Z,21.65
2022-12-09T09:01:34.387Z,21.59
2022-12-09T09:04:01.341Z,21.62
2022-12-09T09:06:28.203Z,21.59
2022-12-09T09:08:54.860Z,21.55
2022-12-09T09:11:21.598Z,21.57
2022-12-09T09:13:48.123Z,21.69
2022-12-09T09:16:15.162Z,21.69
2022-12-09T09:18:42.184Z,21.71
2022-12-09T09:21:09.248Z,21.70
2022-12-09T09:23:36.037Z,21.73
2022-12-09T09:26:02.718Z,21.77
2022-12-09T09:28:31.560Z,21.85
2022-12-09T09:30:58.334Z,21.84
2022-12-09T09:33:25.060Z,21.79
2022-12-09T09:35:51.820Z,21.79
2022-12-09T09:38:18.309Z,21.72
2022-12-09T09:40:45.115Z,21.74
2022-12-09T09:43:11.570Z,21.74
2022-12-09T09:45:37.990Z,21.70
2022-12-09T09:48:04.844Z,21.72
2022-12-09T09:50:31.870Z,21.64
2022-12-09T09:52:58.543Z,21.68
2022-12-09T09:55:25.149Z,21.04
2022-12-09T09:57:51.757Z,20.71
2022-12-09T10:00:18.922Z,21.05
2022-12-09T10:02:46.149Z,21.26
2022-12-09T10:05:13.285Z,21.34
2022-12-09T10:07:40.278Z,21.37
2022-12-09T10:10:07.889Z,21.41
2022-12-09T10:12:35.305Z,21.39
2022-12-09T10:15:02.577Z,21.15
2022-12-09T10:17:29.397Z,21.31
2022-12-09T10:19:56.181Z,21.38
2022-12-09T10:22:23.105Z,21.41
2022-12-09T10:24:50.197Z,21.15
2022-12-09T10:27:16.722Z,21.28
2022-12-09T10:29:43.394Z,21.22
2022-12-09T10:32:10.438Z,20.37
2022-12-09T10:34:37.400Z,19.83
2022-12-09T10:37:03.972Z,20.01
2022-12-09T10:39:30.505Z,20.01
2022-12-09T10:41:57.113Z,20.56
2022-12-09T10:44:23.949Z,20.65
2022-12-09T10:46:50.987Z,20.79
2022-12-09T10:49:17.560Z,20.83
2022-12-09T10:51:44.288Z,20.86
2022-12-09T10:54:11.210Z,20.98
2022-12-09T10:56:40.040Z,21.03
2022-12-09T10:59:06.758Z,20.98
2022-12-09T11:01:33.188Z,21.01
2022-12-09T11:04:00.657Z,21.07
2022-12-09T11:06:27.356Z,21.17
2022-12-09T11:08:54.519Z,21.20
2022-12-09T11:11:21.622Z,21.24
2022-12-09T11:13:48.216Z,21.24
2022-12-09T11:16:15.106Z,21.29
2022-12-09T11:18:41.964Z,21.25
2022-12-09T11:21:08.906Z,21.28
2022-12-09T11:23:35.851Z,21.23
2022-12-09T11:26:02.620Z,21.28
2022-12-09T11:28:29.362Z,21.31
2022-12-09T11:33:42.560Z,21.27
2022-12-09T11:36:09.054Z,21.29
2022-12-09T11:38:35.450Z,21.27
2022-12-09T11:41:01.822Z,21.28
2022-12-09T11:43:28.299Z,21.22
2022-12-09T11:45:54.667Z,21.24
2022-12-09T11:48:29.924Z,21.28
2022-12-09T11:50:59.166Z,21.26
2022-12-09T11:53:25.533Z,21.29
2022-12-09T11:55:51.899Z,21.31
2022-12-09T11:58:18.300Z,21.26
2022-12-09T12:00:44.699Z,21.26
2022-12-09T12:03:11.185Z,21.29
2022-12-09T12:05:37.587Z,21.34
2022-12-09T12:08:04.029Z,21.31
2022-12-09T12:10:30.487Z,21.27
2022-12-09T12:12:56.888Z,21.27
2022-12-09T12:15:23.298Z,21.25
2022-12-09T12:17:49.711Z,21.23
2022-12-09T12:20:16.129Z,21.25
2022-12-09T12:22:42.520Z,21.22
2022-12-09T12:25:15.544Z,21.22
2022-12-09T12:27:43.948Z,21.26
2022-12-09T12:30:10.472Z,21.26
2022-12-09T12:32:36.946Z,21.26
2022-12-09T12:35:03.341Z,21.24
2022-12-09T12:37:29.740Z,21.21
2022-12-09T12:39:56.134Z,21.29
2022-12-09T12:42:22.519Z,21.26
2022-12-09T12:44:48.909Z,21.19
2022-12-09T12:47:15.303Z,21.24
2022-12-09T12:49:41.680Z,21.22
2022-12-09T12:52:12.748Z,21.24
2022-12-09T12:54:47.501Z,21.26
2022-12-09T12:57:13.883Z,21.13
2022-12-09T12:59:40.263Z,21.10
2022-12-09T13:02:06.683Z,21.07
2022-12-09T13:04:33.062Z,21.05
2022-12-09T13:06:59.453Z,21.08
2022-12-09T13:09:25.838Z,21.05
2022-12-09T13:11:52.223Z,21.11
2022-12-09T13:14:18.591Z,21.05
2022-12-09T13:16:44.992Z,21.08
2022-12-09T13:19:11.487Z,21.00
2022-12-09T13:21:37.855Z,21.00
2022-12-09T13:24:04.243Z,20.97
2022-12-09T13:26:30.643Z,21.05
2022-12-09T13:28:57.040Z,21.05
2022-12-09T13:31:23.455Z,21.04
2022-12-09T13:33:49.916Z,21.05
2022-12-09T13:36:16.318Z,21.03
2022-12-09T13:38:42.852Z,21.00
2022-12-09T13:41:09.259Z,20.98
2022-12-09T13:43:35.632Z,20.97
2022-12-09T13:46:02.099Z,20.93
2022-12-09T13:48:28.543Z,20.97
2022-12-09T13:50:54.930Z,20.95
2022-12-09T13:53:21.331Z,20.89
2022-12-09T13:55:47.915Z,20.88
2022-12-09T13:58:14.305Z,20.90
2022-12-09T14:00:40.699Z,20.87
2022-12-09T14:03:07.193Z,20.85
2022-12-09T14:05:33.656Z,20.85
2022-12-09T14:08:00.119Z,20.93
2022-12-09T14:10:26.555Z,20.87
2022-12-09T14:12:52.927Z,20.89
2022-12-09T14:15:19.316Z,20.80
2022-12-09T14:17:45.688Z,20.81
2022-12-09T14:20:12.074Z,20.83
2022-12-09T14:22:38.481Z,20.85
2022-12-09T14:25:04.959Z,20.78
2022-12-09T14:27:31.341Z,20.79
2022-12-09T14:29:57.772Z,20.78
2022-12-09T14:32:24.155Z,20.76
2022-12-09T14:34:50.524Z,20.78
2022-12-09T14:37:16.910Z,20.74
2022-12-09T14:39:43.334Z,20.74
2022-12-09T14:42:09.751Z,20.71
2022-12-09T14:44:36.148Z,20.72
2022-12-09T14:47:04.040Z,20.72
2022-12-09T14:49:31.507Z,20.72
2022-12-09T14:51:57.918Z,20.71
2022-12-09T14:54:24.314Z,20.68
2022-12-09T14:56:50.686Z,20.70
2022-12-09T14:59:17.078Z,20.71
2022-12-09T15:01:43.482Z,20.74
2022-12-09T15:04:09.954Z,20.69
2022-12-09T15:06:36.408Z,20.68
2022-12-09T15:09:02.792Z,20.65
2022-12-09T15:11:29.183Z,20.66
2022-12-09T15:13:55.577Z,20.67
2022-12-09T15:16:22.060Z,20.65
2022-12-09T15:18:48.460Z,20.66
2022-12-09T15:21:14.856Z,20.67
2022-12-09T15:23:41.245Z,20.65
2022-12-09T15:26:07.631Z,20.66
2022-12-09T15:28:34.042Z,20.60
2022-12-09T15:31:00.535Z,20.61
2022-12-09T15:33:26.999Z,20.62
2022-12-09T15:35:53.438Z,20.60
2022-12-09T15:38:19.832Z,20.59
2022-12-09T15:40:46.216Z,19.99
2022-12-09T15:43:12.591Z,19.50
2022-12-09T15:45:38.963Z,19.02
2022-12-09T15:48:05.342Z,18.96
2022-12-09T15:50:31.763Z,18.73
2022-12-09T15:52:58.170Z,18.49
2022-12-09T15:55:24.575Z,18.53
2022-12-09T15:57:50.953Z,18.43
2022-12-09T16:00:17.306Z,18.39
2022-12-09T16:02:43.810Z,18.39
2022-12-09T16:05:10.205Z,18.09
2022-12-09T16:07:36.651Z,18.01
2022-12-09T16:10:03.217Z,17.79
2022-12-09T16:12:29.765Z,17.66
2022-12-09T16:14:56.151Z,17.55
2022-12-09T16:17:22.523Z,17.54
2022-12-09T16:19:48.906Z,17.51
2022-12-09T16:22:15.278Z,17.97
2022-12-09T16:25:06.066Z,18.72
2022-12-09T16:27:28.042Z,19.00
2022-12-09T16:29:54.434Z,19.11
2022-12-09T16:32:20.794Z,19.23
2022-12-09T16:34:47.154Z,19.32
2022-12-09T16:37:13.518Z,19.38
2022-12-09T16:39:39.890Z,19.46
2022-12-09T16:42:06.318Z,19.50
2022-12-09T16:44:32.682Z,18.47
2022-12-09T16:46:59.067Z,18.03
2022-12-09T16:49:25.447Z,17.75
2022-12-09T16:51:51.969Z,17.55
2022-12-09T16:54:21.118Z,17.41
2022-12-09T16:56:47.821Z,17.57
2022-12-09T16:59:14.199Z,17.46
2022-12-09T17:01:40.614Z,17.52
2022-12-09T17:04:06.990Z,17.19
2022-12-09T17:06:33.381Z,17.07
2022-12-09T17:08:59.762Z,18.10
2022-12-09T17:11:26.136Z,18.61
2022-12-09T17:13:52.521Z,18.76
2022-12-09T17:16:18.978Z,18.96
2022-12-09T17:18:45.415Z,19.07
2022-12-09T17:21:11.780Z,19.18
2022-12-09T17:23:40.224Z,19.27
2022-12-09T17:26:06.777Z,19.36
2022-12-09T17:28:33.138Z,19.34
2022-12-09T17:30:59.512Z,19.42
2022-12-09T17:33:25.907Z,19.44
2022-12-09T17:35:52.315Z,19.42
2022-12-09T17:38:18.706Z,19.48
2022-12-09T17:40:45.078Z,19.43
2022-12-09T17:43:11.451Z,19.47
2022-12-09T17:45:42.114Z,19.49
2022-12-09T17:48:08.922Z,19.50
2022-12-09T17:50:35.286Z,19.51
2022-12-09T17:53:01.906Z,19.56
2022-12-09T17:55:28.298Z,19.56
2022-12-09T17:57:54.670Z,19.54
2022-12-09T18:00:21.062Z,19.60
2022-12-09T18:02:47.589Z,19.64
2022-12-09T18:05:13.972Z,19.67
2022-12-09T18:07:40.402Z,19.69
2022-12-09T18:10:06.938Z,19.63
2022-12-09T18:12:33.399Z,19.69
2022-12-09T18:14:59.768Z,19.67
2022-12-09T18:17:26.160Z,19.69
2022-12-09T18:19:52.550Z,19.74
2022-12-09T18:22:18.941Z,19.73
2022-12-09T18:24:45.379Z,19.70
2022-12-09T18:27:11.765Z,19.84
2022-12-09T18:29:38.171Z,19.76
2022-12-09T18:32:04.554Z,19.74
2022-12-09T18:34:30.959Z,19.78
2022-12-09T18:36:57.353Z,19.80
2022-12-09T18:39:23.733Z,19.80
2022-12-09T18:41:50.120Z,19.88
2022-12-09T18:44:16.553Z,19.86
2022-12-09T18:46:42.967Z,19.90
2022-12-09T18:49:09.362Z,20.00
2022-12-09T18:51:35.753Z,20.02
2022-12-09T18:54:02.148Z,20.11
2022-12-09T18:56:28.522Z,20.08
2022-12-09T18:59:06.412Z,20.01
2022-12-09T19:01:33.249Z,19.94
2022-12-09T19:03:59.690Z,19.97
2022-12-09T19:06:26.087Z,19.96
2022-12-09T19:08:52.467Z,19.98
2022-12-09T19:11:18.869Z,20.00
2022-12-09T19:13:45.254Z,19.95
2022-12-09T19:16:11.678Z,19.94
2022-12-09T19:18:38.100Z,19.98
2022-12-09T19:21:04.493Z,19.95
2022-12-09T19:23:30.878Z,19.90
2022-12-09T19:25:57.248Z,19.94
2022-12-09T19:28:23.624Z,19.97
2022-12-09T19:30:50.239Z,19.96
2022-12-09T19:33:16.697Z,19.99
2022-12-09T19:35:43.090Z,19.97
2022-12-09T19:38:09.473Z,19.96
2022-12-09T19:40:35.854Z,19.92
2022-12-09T19:43:02.248Z,19.94
2022-12-09T19:45:28.639Z,19.98
2022-12-09T19:47:55.032Z,19.99
2022-12-09T19:50:21.427Z,20.00
2022-12-09T19:52:47.809Z,20.05
2022-12-09T19:55:14.226Z,20.10
2022-12-09T19:57:40.587Z,20.08
2022-12-09T20:00:07.232Z,20.00
2022-12-09T20:02:33.932Z,20.01
2022-12-09T20:05:00.317Z,20.04
2022-12-09T20:07:26.699Z,20.08
2022-12-09T20:09:53.082Z,19.97
2022-12-09T20:12:19.452Z,20.02
2022-12-09T20:14:45.903Z,20.00
2022-12-09T20:17:12.285Z,20.04
2022-12-09T20:19:38.673Z,20.00
2022-12-09T20:22:05.205Z,19.94
2022-12-09T20:24:31.582Z,19.97
2022-12-09T20:26:57.975Z,19.98
2022-12-09T20:29:24.367Z,19.99
2022-12-09T20:31:50.779Z,19.98
2022-12-09T20:34:17.257Z,20.00
2022-12-09T20:36:43.642Z,20.02
2022-12-09T20:39:10.013Z,20.01
2022-12-09T20:41:36.396Z,20.01
2022-12-09T20:44:02.763Z,20.00
2022-12-09T20:46:29.141Z,20.02
2022-12-09T20:48:55.539Z,20.00
2022-12-09T20:51:21.995Z,19.99
2022-12-09T20:53:48.382Z,19.96
2022-12-09T20:56:14.748Z,19.97
2022-12-09T20:58:41.112Z,19.94
2022-12-09T21:01:07.552Z,19.93
2022-12-09T21:03:34.014Z,19.96
2022-12-09T21:06:00.460Z,19.95
2022-12-09T21:08:31.208Z,20.01
2022-12-09T21:10:58.199Z,20.00
2022-12-09T21:13:24.602Z,19.97
2022-12-09T21:15:50.999Z,19.98
2022-12-09T21:18:17.389Z,19.99
2022-12-09T21:20:44.484Z,19.98
2022-12-09T21:23:33.266Z,19.96
2022-12-09T21:25:57.308Z,20.00
2022-12-09T21:28:23.705Z,19.99
2022-12-09T21:30:50.087Z,20.00
2022-12-09T21:33:16.484Z,19.98
2022-12-09T21:35:42.873Z,19.97
2022-12-09T21:38:09.264Z,19.99
2022-12-09T21:40:35.669Z,20.00
2022-12-09T21:43:02.049Z,20.01
2022-12-09T21:45:28.496Z,19.99
2022-12-09T21:47:54.940Z,20.00
2022-12-09T21:50:21.349Z,20.00
2022-12-09T21:52:47.738Z,19.94
2022-12-09T21:55:14.129Z,19.91
2022-12-09T21:57:40.528Z,19.95
2022-12-09T22:00:07.197Z,19.94
2022-12-09T22:02:33.848Z,19.96
2022-12-09T22:05:00.297Z,19.94
2022-12-09T22:07:26.697Z,19.92
2022-12-09T22:09:53.135Z,19.91
2022-12-09T22:12:19.518Z,19.92
2022-12-09T22:14:45.903Z,19.91
2022-12-09T22:17:12.288Z,19.94
2022-12-09T22:19:38.670Z,19.91
2022-12-09T22:22:09.010Z,19.90
2022-12-09T22:24:35.701Z,19.91
2022-12-09T22:27:02.102Z,19.92
2022-12-09T22:29:28.486Z,19.90
2022-12-09T22:31:54.856Z,19.93
2022-12-09T22:34:21.256Z,19.91
2022-12-09T22:36:47.648Z,19.93
2022-12-09T22:39:14.045Z,19.92
2022-12-09T22:41:40.440Z,19.93
2022-12-09T22:44:06.818Z,19.92
2022-12-09T22:46:33.238Z,19.93
2022-12-09T22:48:59.659Z,19.90
2022-12-09T22:51:26.049Z,19.92
2022-12-09T22:53:52.438Z,19.91
2022-12-09T22:56:18.822Z,19.91
2022-12-09T22:58:45.207Z,19.91
2022-12-09T23:01:11.573Z,19.92
2022-12-09T23:03:37.955Z,19.93
2022-12-09T23:06:04.322Z,19.93
2022-12-09T23:08:30.690Z,19.92
2022-12-09T23:10:57.071Z,19.91
2022-12-09T23:13:23.438Z,19.90
2022-12-09T23:15:49.847Z,19.90
2022-12-09T23:18:16.270Z,19.89
2022-12-09T23:20:42.655Z,19.90
2022-12-09T23:23:09.034Z,19.90
2022-12-09T23:25:35.417Z,19.93
2022-12-09T23:28:01.816Z,19.94
2022-12-09T23:30:28.205Z,19.94
2022-12-09T23:32:54.592Z,19.94
2022-12-09T23:35:20.963Z,19.94
2022-12-09T23:37:47.412Z,19.62
2022-12-09T23:40:13.785Z,19.03
2022-12-09T23:42:40.170Z,18.69
2022-12-09T23:45:06.545Z,18.82
2022-12-09T23:47:32.910Z,19.42
2022-12-09T23:49:59.300Z,19.56
2022-12-09T23:52:25.695Z,19.61
2022-12-09T23:54:52.068Z,19.66
2022-12-09T23:57:18.475Z,19.70
2022-12-09T23:59:44.915Z,19.70
